Time;durP1;ratioP1;P1;durP2;ratioP2;P2;SDS_P1;SDS_P2;PMS_P1;PMS_P2;Temp;Humidity;BMP_temperature;BMP_pressure;BME280_temperature;BME280_humidity;BME280_pressure;Samples;Min_cycle;Max_cycle;Signal;HPM_P1;HPM_P2
2022/04/20 00:00:41;;;;;;;3.50;2.70;;;12.90;37.90;;;;;;5087436;28;20200;-83
2022/04/20 00:03:07;;;;;;;3.43;2.67;;;12.90;37.80;;;;;;5089838;28;20368;-83
2022/04/20 00:05:33;;;;;;;5.13;3.00;;;12.80;38.00;;;;;;5104006;28;20202;-83
2022/04/20 00:08:06;;;;;;;3.20;2.87;;;12.70;37.60;;;;;;5100309;28;20189;-83
2022/04/20 00:10:32;;;;;;;3.20;2.90;;;12.70;37.90;;;;;;5102046;28;20176;-83
2022/04/20 00:12:58;;;;;;;3.87;2.60;;;12.70;38.10;;;;;;5094302;28;20215;-82
2022/04/20 00:15:24;;;;;;;4.27;2.87;;;12.60;37.90;;;;;;5094047;28;20214;-83
2022/04/20 00:17:50;;;;;;;2.80;2.60;;;12.80;38.10;;;;;;5086145;28;20268;-83
2022/04/20 00:20:17;;;;;;;3.83;3.03;;;12.70;38.10;;;;;;5086966;28;20221;-83
2022/04/20 00:22:42;;;;;;;3.27;3.00;;;12.80;37.90;;;;;;5097993;28;20214;-83
2022/04/20 00:25:08;;;;;;;2.80;2.60;;;12.80;37.70;;;;;;5087940;28;20269;-82
2022/04/20 00:27:35;;;;;;;3.30;2.80;;;12.70;38.00;;;;;;5088331;28;20767;-82
2022/04/20 00:30:09;;;;;;;3.23;2.87;;;12.60;38.40;;;;;;5085083;28;20570;-83
2022/04/20 00:32:35;;;;;;;3.13;2.83;;;12.50;39.10;;;;;;5091737;28;20216;-82
2022/04/20 00:35:01;;;;;;;3.30;2.63;;;12.50;38.60;;;;;;5095139;28;20193;-82
2022/04/20 00:37:27;;;;;;;3.33;3.03;;;12.40;39.20;;;;;;5091282;28;20236;-83
2022/04/20 00:39:53;;;;;;;2.90;2.60;;;12.20;38.80;;;;;;5097844;28;20179;-83
2022/04/20 00:42:22;;;;;;;3.20;2.90;;;12.30;39.20;;;;;;5094267;28;20747;-82
2022/04/20 00:44:48;;;;;;;2.93;2.70;;;12.30;39.10;;;;;;5092815;28;20180;-83
2022/04/20 00:47:16;;;;;;;3.13;2.83;;;12.20;40.40;;;;;;5093373;28;20243;-83
2022/04/20 00:49:43;;;;;;;3.57;2.77;;;12.10;39.50;;;;;;5093770;28;20187;-83
2022/04/20 00:52:09;;;;;;;3.20;2.70;;;11.90;39.60;;;;;;5091859;28;20207;-83
2022/04/20 00:54:34;;;;;;;2.90;2.60;;;11.90;40.00;;;;;;5093676;28;20189;-83
2022/04/20 00:57:00;;;;;;;3.63;2.80;;;12.10;40.30;;;;;;5092970;28;20561;-83
2022/04/20 00:59:28;;;;;;;3.10;2.83;;;12.10;39.70;;;;;;5092592;28;20192;-83
2022/04/20 01:01:54;;;;;;;4.33;2.87;;;12.00;39.30;;;;;;5095368;28;20303;-83
2022/04/20 01:04:20;;;;;;;3.00;2.80;;;12.10;39.90;;;;;;5093710;28;20212;-83
2022/04/20 01:06:49;;;;;;;3.03;2.73;;;12.10;39.50;;;;;;5093587;28;20212;-83
2022/04/20 01:09:15;;;;;;;2.90;2.60;;;12.10;40.50;;;;;;5092777;28;20215;-83
2022/04/20 01:11:47;;;;;;;3.10;2.80;;;12.20;39.90;;;;;;5097369;28;20208;-83
2022/04/20 01:14:13;;;;;;;3.13;2.30;;;12.00;39.40;;;;;;5087678;28;20195;-83
2022/04/20 01:16:38;;;;;;;3.90;3.00;;;11.80;40.60;;;;;;5078044;28;20188;-83
2022/04/20 01:19:04;;;;;;;3.23;2.67;;;11.80;40.70;;;;;;5095039;28;20284;-84
2022/04/20 01:21:30;;;;;;;3.20;2.90;;;11.80;41.40;;;;;;5090550;28;20228;-84
2022/04/20 01:23:56;;;;;;;2.80;2.60;;;11.90;40.70;;;;;;5092198;28;20190;-83
2022/04/20 01:26:22;;;;;;;2.77;2.40;;;12.10;41.20;;;;;;5090374;28;20212;-83
2022/04/20 01:28:48;;;;;;;5.20;3.10;;;12.00;41.80;;;;;;5092385;28;20188;-84
2022/04/20 01:31:15;;;;;;;2.80;2.53;;;11.90;41.30;;;;;;5089432;28;20244;-84
2022/04/20 01:33:42;;;;;;;3.07;2.77;;;11.90;41.30;;;;;;5089186;28;20186;-84
2022/04/20 01:36:09;;;;;;;3.00;2.73;;;11.70;41.40;;;;;;5091934;28;20202;-84
2022/04/20 01:38:36;;;;;;;3.50;3.20;;;11.70;41.10;;;;;;5096214;28;20255;-84
2022/04/20 01:41:02;;;;;;;2.60;2.40;;;11.60;40.70;;;;;;5089398;28;20593;-84
2022/04/20 01:43:28;;;;;;;3.33;2.33;;;11.40;42.10;;;;;;5084691;28;20203;-84
2022/04/20 01:45:53;;;;;;;4.37;3.00;;;11.20;42.70;;;;;;5095866;28;20218;-84
2022/04/20 01:48:19;;;;;;;4.50;2.90;;;11.20;42.20;;;;;;5100717;28;20195;-84
2022/04/20 01:53:30;;;;;;;5.77;2.90;;;10.90;42.80;;;;;;5095850;28;20537;-83
2022/04/20 01:55:56;;;;;;;3.77;2.60;;;10.80;43.20;;;;;;5089671;28;20194;-84
2022/04/20 01:58:22;;;;;;;3.90;3.00;;;10.70;43.20;;;;;;5094319;28;20197;-84
2022/04/20 02:00:48;;;;;;;2.80;2.60;;;10.60;43.90;;;;;;5088258;28;20204;-83
2022/04/20 02:03:14;;;;;;;3.20;2.67;;;10.60;43.80;;;;;;5096950;28;20183;-83
2022/04/20 02:05:40;;;;;;;3.37;2.90;;;10.50;43.90;;;;;;5105325;28;20260;-84
2022/04/20 02:08:06;;;;;;;3.90;2.40;;;10.60;44.10;;;;;;5093288;28;20198;-84
2022/04/20 02:10:31;;;;;;;3.30;3.00;;;10.60;43.90;;;;;;5090980;28;20186;-83
2022/04/20 02:12:57;;;;;;;3.23;2.93;;;10.60;44.10;;;;;;5090251;28;20210;-83
2022/04/20 02:15:23;;;;;;;3.90;2.83;;;10.50;44.50;;;;;;5096744;28;20199;-84
2022/04/20 02:17:48;;;;;;;3.17;2.87;;;10.60;44.50;;;;;;5074878;28;20191;-83
2022/04/20 02:20:14;;;;;;;4.87;3.23;;;10.60;44.60;;;;;;5095753;28;20195;-83
2022/04/20 02:22:40;;;;;;;3.40;3.10;;;10.70;44.40;;;;;;5077956;28;20215;-83
2022/04/20 02:25:07;;;;;;;4.03;3.50;;;10.70;44.40;;;;;;5089691;28;20236;-84
2022/04/20 02:27:32;;;;;;;3.97;3.07;;;10.60;44.90;;;;;;5097762;28;20190;-83
2022/04/20 02:29:58;;;;;;;6.03;2.80;;;10.50;45.10;;;;;;5095344;28;20197;-85
2022/04/20 02:32:24;;;;;;;4.60;3.10;;;10.60;45.30;;;;;;5095705;28;20843;-85
2022/04/20 02:34:49;;;;;;;4.83;2.83;;;10.50;45.40;;;;;;5092093;28;20176;-83
2022/04/20 02:37:15;;;;;;;3.73;3.33;;;10.30;46.00;;;;;;5091176;28;20616;-84
2022/04/20 02:39:42;;;;;;;4.63;3.13;;;10.30;46.30;;;;;;5097306;28;20194;-83
2022/04/20 02:42:09;;;;;;;3.63;3.20;;;10.20;46.50;;;;;;5090795;28;20677;-83
2022/04/20 02:44:36;;;;;;;4.23;3.57;;;10.10;47.00;;;;;;5095714;28;20184;-85
2022/04/20 02:47:02;;;;;;;3.53;3.17;;;10.10;47.70;;;;;;5093760;28;20206;-82
2022/04/20 02:49:28;;;;;;;4.90;3.77;;;10.20;47.10;;;;;;5087645;28;20184;-84
2022/04/20 02:51:53;;;;;;;4.43;3.40;;;10.40;47.10;;;;;;5097702;28;20201;-84
2022/04/20 02:54:19;;;;;;;3.33;2.90;;;10.30;47.50;;;;;;5098788;28;20187;-83
2022/04/20 02:56:45;;;;;;;3.57;3.27;;;10.30;47.20;;;;;;5091159;28;20196;-82
2022/04/20 02:59:10;;;;;;;4.57;3.60;;;10.30;47.50;;;;;;5101643;28;20221;-83
2022/04/20 03:01:36;;;;;;;3.50;3.10;;;10.10;48.00;;;;;;5102319;28;20270;-83
2022/04/20 03:04:02;;;;;;;4.13;3.30;;;10.10;48.50;;;;;;5094909;28;20183;-83
2022/04/20 03:06:28;;;;;;;3.67;3.37;;;9.90;48.70;;;;;;5090882;28;20206;-84
2022/04/20 03:08:54;;;;;;;3.87;3.53;;;9.90;49.10;;;;;;5093130;28;20179;-83
2022/04/20 03:11:20;;;;;;;5.30;3.53;;;9.90;49.00;;;;;;5094758;28;20206;-83
2022/04/20 03:13:47;;;;;;;3.97;3.40;;;9.90;49.60;;;;;;5093463;28;20187;-83
2022/04/20 03:16:15;;;;;;;5.33;3.70;;;10.00;49.40;;;;;;5090471;28;20191;-83
2022/04/20 03:18:40;;;;;;;4.17;3.20;;;10.00;49.50;;;;;;5089978;28;20191;-83
2022/04/20 03:21:06;;;;;;;4.43;3.90;;;9.80;50.00;;;;;;5093303;28;20223;-83
2022/04/20 03:23:32;;;;;;;7.47;3.90;;;9.80;50.00;;;;;;5093658;28;20182;-83
2022/04/20 03:25:58;;;;;;;4.20;3.80;;;9.80;50.30;;;;;;5079215;28;20211;-83
2022/04/20 03:28:24;;;;;;;4.17;3.77;;;9.80;51.30;;;;;;5086829;28;20183;-83
2022/04/20 03:30:50;;;;;;;5.83;3.20;;;9.90;50.40;;;;;;5091832;28;20248;-82
2022/04/20 03:33:16;;;;;;;5.43;3.97;;;9.90;51.00;;;;;;5090599;28;20179;-83
2022/04/20 03:35:43;;;;;;;4.90;3.47;;;9.80;50.80;;;;;;5087211;28;20187;-83
2022/04/20 03:38:09;;;;;;;4.03;3.63;;;9.90;50.70;;;;;;5091439;28;20186;-84
2022/04/20 03:40:35;;;;;;;4.07;3.70;;;9.80;50.60;;;;;;5089005;28;20656;-84
2022/04/20 03:43:04;;;;;;;4.07;3.50;;;10.00;51.00;;;;;;5095962;28;20191;-84
2022/04/20 03:45:50;;;;;;;5.63;3.90;;;10.00;50.00;;;;;;5092862;28;20233;-83
2022/04/20 03:48:17;;;;;;;5.73;3.40;;;10.00;50.30;;;;;;5077212;28;20187;-83
2022/04/20 03:50:42;;;;;;;4.43;4.03;;;9.90;50.60;;;;;;5099059;28;20190;-83
2022/04/20 03:53:08;;;;;;;4.00;3.60;;;9.80;51.10;;;;;;5099871;28;20183;-83
2022/04/20 03:55:34;;;;;;;6.07;4.37;;;9.70;51.60;;;;;;5111268;28;20224;-83
2022/04/20 03:57:59;;;;;;;5.50;3.73;;;9.60;51.80;;;;;;5111133;28;20207;-83
2022/04/20 04:00:25;;;;;;;4.10;3.70;;;9.60;52.00;;;;;;5093857;28;20191;-84
2022/04/20 04:02:52;;;;;;;4.30;3.90;;;9.60;52.20;;;;;;5095642;28;20206;-84
2022/04/20 04:05:18;;;;;;;3.60;3.30;;;9.80;51.90;;;;;;5097764;28;20218;-84
2022/04/20 04:07:44;;;;;;;3.93;3.63;;;9.70;52.00;;;;;;5092491;28;20630;-83
2022/04/20 04:10:09;;;;;;;3.83;3.53;;;9.70;52.20;;;;;;5098597;28;20187;-84
2022/04/20 04:12:36;;;;;;;4.60;4.17;;;9.50;53.00;;;;;;5091091;28;20230;-83
2022/04/20 04:15:03;;;;;;;3.53;3.23;;;9.40;53.20;;;;;;5091092;28;20180;-84
2022/04/20 04:17:29;;;;;;;4.33;3.90;;;9.60;53.30;;;;;;5087275;28;20187;-83
2022/04/20 04:19:55;;;;;;;4.90;3.47;;;9.60;52.80;;;;;;5087274;28;20271;-83
2022/04/20 04:22:21;;;;;;;4.30;3.83;;;9.80;53.50;;;;;;5089493;28;20272;-84
2022/04/20 04:24:47;;;;;;;4.67;4.03;;;9.90;52.40;;;;;;5093959;28;20599;-83
2022/04/20 04:27:15;;;;;;;4.27;3.87;;;9.80;52.10;;;;;;5099530;28;20219;-82
2022/04/20 04:29:41;;;;;;;8.50;5.20;;;9.70;52.60;;;;;;5102235;28;20190;-83
2022/04/20 04:32:07;;;;;;;8.27;4.37;;;9.70;53.20;;;;;;5063719;28;20207;-83
2022/04/20 04:34:33;;;;;;;18.90;6.10;;;9.60;52.60;;;;;;5097022;28;20171;-82
2022/04/20 04:36:59;;;;;;;4.70;4.30;;;9.60;53.00;;;;;;5094139;28;20218;-82
2022/04/20 04:39:28;;;;;;;4.60;4.17;;;9.60;53.00;;;;;;5099266;28;20202;-83
2022/04/20 04:41:56;;;;;;;4.23;3.83;;;9.60;53.50;;;;;;5064422;28;20206;-82
2022/04/20 04:44:22;;;;;;;4.83;4.13;;;9.70;53.30;;;;;;5097574;28;20759;-83
2022/04/20 04:49:32;;;;;;;6.67;4.30;;;9.60;53.30;;;;;;5085312;28;20799;-81
2022/04/20 04:51:59;;;;;;;4.60;3.83;;;9.40;53.90;;;;;;5078734;28;20203;-82
2022/04/20 04:54:25;;;;;;;3.83;3.53;;;9.40;54.00;;;;;;5102255;28;20188;-82
2022/04/20 04:56:52;;;;;;;4.77;3.87;;;9.20;54.40;;;;;;5100689;28;20592;-82
2022/04/20 04:59:18;;;;;;;4.63;4.23;;;9.20;54.50;;;;;;5097799;28;20190;-82
2022/04/20 05:01:44;;;;;;;4.47;3.90;;;9.30;54.50;;;;;;5101593;28;20198;-82
2022/04/20 05:04:11;;;;;;;4.57;4.17;;;9.20;54.50;;;;;;5104292;28;20197;-81
2022/04/20 05:06:37;;;;;;;4.20;3.80;;;9.20;54.80;;;;;;5100885;28;20207;-82
2022/04/20 05:09:03;;;;;;;5.30;4.03;;;9.20;54.90;;;;;;5080783;28;20193;-82
2022/04/20 05:11:29;;;;;;;4.73;4.23;;;9.20;54.70;;;;;;5099128;28;20215;-81
2022/04/20 05:13:55;;;;;;;5.93;3.90;;;9.10;55.20;;;;;;5075817;28;20214;-81
2022/04/20 05:16:21;;;;;;;4.30;3.90;;;9.10;55.20;;;;;;5081220;28;20191;-81
2022/04/20 05:18:47;;;;;;;4.93;4.17;;;9.00;55.30;;;;;;5104948;28;20202;-82
2022/04/20 05:21:13;;;;;;;4.30;3.90;;;9.10;55.50;;;;;;5104022;28;20219;-81
2022/04/20 05:23:39;;;;;;;6.20;4.60;;;9.20;56.10;;;;;;5108138;28;20187;-81
2022/04/20 05:26:04;;;;;;;4.90;4.40;;;9.30;55.20;;;;;;5101247;28;20301;-82
2022/04/20 05:28:30;;;;;;;5.57;4.30;;;9.20;54.90;;;;;;5100846;28;20202;-82
2022/04/20 05:30:56;;;;;;;5.20;3.80;;;9.20;55.50;;;;;;5107008;28;20203;-81
2022/04/20 05:33:22;;;;;;;4.77;4.23;;;9.30;55.30;;;;;;5087860;28;20188;-82
2022/04/20 05:35:47;;;;;;;4.27;3.87;;;9.50;55.20;;;;;;5108738;28;20194;-82
2022/04/20 05:43:42;;;;;;;4.30;3.50;;;9.30;55.90;;;;;;5096221;28;20244;-81
2022/04/20 05:46:09;;;;;;;4.33;3.93;;;9.40;56.20;;;;;;5093836;28;20266;-81
2022/04/20 05:48:35;;;;;;;4.77;4.33;;;9.60;54.60;;;;;;5097265;28;20187;-81
2022/04/20 05:51:01;;;;;;;4.57;3.80;;;9.70;53.90;;;;;;5096739;28;20237;-82
2022/04/20 05:53:27;;;;;;;9.40;3.83;;;9.70;53.60;;;;;;5097329;28;20187;-81
2022/04/20 05:55:53;;;;;;;4.37;3.93;;;9.70;52.90;;;;;;5094420;28;20183;-81
2022/04/20 05:58:19;;;;;;;7.20;4.37;;;9.80;53.30;;;;;;5096571;28;20187;-81
2022/04/20 06:00:44;;;;;;;5.70;3.97;;;9.80;53.20;;;;;;5094911;28;20267;-81
2022/04/20 06:03:11;;;;;;;6.97;4.40;;;9.80;53.10;;;;;;5095606;28;20702;-82
2022/04/20 06:05:38;;;;;;;4.70;4.20;;;9.90;53.10;;;;;;5079062;28;20253;-81
2022/04/20 06:08:04;;;;;;;6.57;4.10;;;10.10;53.10;;;;;;5097046;28;20184;-81
2022/04/20 06:10:32;;;;;;;6.50;4.20;;;10.10;52.50;;;;;;5091705;28;20187;-84
2022/04/20 06:12:58;;;;;;;5.27;3.83;;;10.20;51.90;;;;;;5080372;28;20189;-81
2022/04/20 06:15:24;;;;;;;5.13;4.30;;;10.10;52.10;;;;;;5093545;28;20183;-80
2022/04/20 06:17:50;;;;;;;4.80;3.77;;;10.20;51.70;;;;;;5096750;28;20179;-83
2022/04/20 06:20:16;;;;;;;5.27;4.27;;;10.20;51.40;;;;;;5098452;28;20183;-80
2022/04/20 06:22:41;;;;;;;6.30;4.27;;;10.10;51.40;;;;;;5096764;28;20209;-82
2022/04/20 06:25:08;;;;;;;3.97;3.63;;;10.20;51.30;;;;;;5095806;28;20187;-84
2022/04/20 06:27:34;;;;;;;6.47;4.10;;;10.20;51.50;;;;;;5090682;28;20211;-81
2022/04/20 06:30:00;;;;;;;6.13;4.30;;;10.40;51.40;;;;;;5094027;28;20199;-80
2022/04/20 06:32:27;;;;;;;4.90;3.83;;;10.40;50.40;;;;;;5076522;28;20699;-80
2022/04/20 06:34:54;;;;;;;6.00;4.23;;;10.40;50.00;;;;;;5090628;28;20180;-81
2022/04/20 06:37:22;;;;;;;5.10;3.83;;;10.40;50.30;;;;;;5094790;28;20209;-81
2022/04/20 06:39:49;;;;;;;4.20;3.80;;;10.50;50.10;;;;;;5092514;28;20266;-81
2022/04/20 06:42:15;;;;;;;4.77;4.13;;;10.50;50.00;;;;;;5097237;28;20218;-81
2022/04/20 06:44:41;;;;;;;4.70;4.20;;;10.60;49.70;;;;;;5099938;28;20183;-80
2022/04/20 06:47:07;;;;;;;4.30;3.90;;;10.50;49.40;;;;;;5079524;28;20741;-81
2022/04/20 06:49:33;;;;;;;5.03;3.97;;;10.50;49.60;;;;;;5077534;28;20666;-82
2022/04/20 07:00:11;;;;;;;7.23;4.30;;;10.50;49.70;;;;;;5094868;28;20222;-82
2022/04/20 07:02:37;;;;;;;4.53;4.13;;;10.70;49.90;;;;;;5095220;28;20211;-83
2022/04/20 07:05:03;;;;;;;4.70;4.10;;;10.70;49.10;;;;;;5080788;28;20187;-82
2022/04/20 07:07:29;;;;;;;4.40;3.80;;;10.60;49.30;;;;;;5104309;28;20207;-83
2022/04/20 07:09:54;;;;;;;4.70;4.20;;;10.60;49.50;;;;;;5105255;28;20198;-83
2022/04/20 07:12:20;;;;;;;4.43;4.03;;;10.70;49.10;;;;;;5102333;28;20277;-83
2022/04/20 07:14:46;;;;;;;4.40;4.00;;;10.80;49.10;;;;;;5101462;28;20183;-83
2022/04/20 07:17:11;;;;;;;4.53;4.00;;;11.00;48.90;;;;;;5098463;28;20200;-82
2022/04/20 07:19:37;;;;;;;6.60;4.10;;;11.10;49.20;;;;;;5086529;28;20183;-83
2022/04/20 07:22:03;;;;;;;4.03;3.70;;;11.20;47.90;;;;;;5096535;28;20278;-83
2022/04/20 07:24:29;;;;;;;4.07;3.77;;;11.20;47.40;;;;;;5099563;28;20214;-83
2022/04/20 07:26:54;;;;;;;6.43;4.10;;;11.10;47.70;;;;;;5079437;28;20236;-82
2022/04/20 07:29:20;;;;;;;4.07;3.67;;;11.30;48.10;;;;;;5097756;28;20198;-82
2022/04/20 07:31:46;;;;;;;5.10;4.07;;;11.50;47.20;;;;;;5077429;28;20207;-81
2022/04/20 07:34:12;;;;;;;7.10;4.60;;;11.70;46.90;;;;;;5091176;28;20199;-83
2022/04/20 07:36:37;;;;;;;3.80;3.50;;;12.00;46.50;;;;;;5098571;28;20819;-82
2022/04/20 07:39:03;;;;;;;5.30;3.73;;;12.10;45.00;;;;;;5102375;28;20210;-82
2022/04/20 07:41:29;;;;;;;4.00;3.67;;;12.00;44.20;;;;;;5095906;28;20212;-82
2022/04/20 07:43:55;;;;;;;4.80;4.03;;;12.00;44.80;;;;;;5095502;28;20188;-81
2022/04/20 07:46:22;;;;;;;4.43;4.00;;;11.90;44.90;;;;;;5094381;28;20221;-82
2022/04/20 07:48:48;;;;;;;5.13;3.83;;;11.80;45.10;;;;;;5077723;28;20184;-82
2022/04/20 07:51:14;;;;;;;4.43;3.97;;;12.00;45.40;;;;;;5097259;28;20212;-82
2022/04/20 07:53:40;;;;;;;4.30;3.50;;;12.00;45.70;;;;;;5097375;28;20251;-82
2022/04/20 07:56:06;;;;;;;4.70;3.80;;;12.10;45.30;;;;;;5093412;28;20214;-82
2022/04/20 07:58:32;;;;;;;5.00;4.03;;;12.30;44.60;;;;;;5090933;28;20195;-82
2022/04/20 08:00:57;;;;;;;4.47;3.93;;;12.30;44.40;;;;;;5068877;28;20218;-82
2022/04/20 08:03:24;;;;;;;4.83;4.17;;;12.40;44.10;;;;;;5092162;28;20220;-82
2022/04/20 08:05:55;;;;;;;7.47;3.83;;;12.40;43.50;;;;;;5098581;28;20211;-82
2022/04/20 08:08:22;;;;;;;4.10;3.70;;;12.60;43.80;;;;;;5108338;28;20189;-81
2022/04/20 08:10:48;;;;;;;4.97;4.00;;;12.80;42.50;;;;;;5108969;28;20235;-81
2022/04/20 08:15:59;;;;;;;4.77;4.00;;;12.90;42.00;;;;;;5095238;28;20227;-82
2022/04/20 08:18:25;;;;;;;7.73;3.40;;;13.00;41.70;;;;;;5095315;28;20189;-82
2022/04/20 08:20:51;;;;;;;5.97;3.27;;;13.00;41.30;;;;;;5097980;28;20228;-82
2022/04/20 08:23:17;;;;;;;4.27;3.67;;;13.10;40.20;;;;;;5077329;28;20640;-81
2022/04/20 08:25:43;;;;;;;4.10;3.70;;;13.40;40.40;;;;;;5056254;28;20265;-82
2022/04/20 08:28:10;;;;;;;5.70;3.73;;;13.50;40.30;;;;;;5094075;28;20217;-82
2022/04/20 08:30:37;;;;;;;4.37;4.07;;;13.60;40.20;;;;;;5102011;28;20189;-81
2022/04/20 08:33:07;;;;;;;6.73;3.63;;;13.40;40.30;;;;;;5066214;28;20233;-82
2022/04/20 08:35:34;;;;;;;4.10;3.70;;;13.50;40.10;;;;;;5073500;28;20183;-82
2022/04/20 08:37:59;;;;;;;4.10;3.40;;;13.50;40.50;;;;;;5106943;28;20196;-82
2022/04/20 08:40:26;;;;;;;4.33;3.40;;;13.60;38.70;;;;;;5085527;28;20192;-83
2022/04/20 08:42:54;;;;;;;5.30;3.20;;;13.80;37.30;;;;;;5074166;28;20250;-82
2022/04/20 08:45:20;;;;;;;3.77;3.47;;;13.90;37.30;;;;;;5094176;28;20598;-82
2022/04/20 08:47:49;;;;;;;4.07;3.73;;;14.00;39.20;;;;;;5093767;28;20190;-82
2022/04/20 08:50:15;;;;;;;5.83;3.77;;;13.90;38.70;;;;;;5091893;28;20201;-83
2022/04/20 08:52:46;;;;;;;4.10;3.70;;;14.00;37.00;;;;;;5095653;28;20213;-82
2022/04/20 08:55:15;;;;;;;6.87;3.77;;;14.20;36.70;;;;;;5098184;28;20190;-83
2022/04/20 08:57:43;;;;;;;4.60;3.60;;;14.40;36.60;;;;;;5098818;28;20186;-83
2022/04/20 09:00:17;;;;;;;4.10;3.73;;;14.30;37.70;;;;;;5091259;28;20189;-82
2022/04/20 09:02:44;;;;;;;3.73;3.43;;;14.30;37.20;;;;;;5096903;28;20724;-82
2022/04/20 09:05:10;;;;;;;3.23;2.93;;;14.30;35.60;;;;;;5088805;28;20190;-82
2022/04/20 09:07:35;;;;;;;5.23;3.93;;;14.20;35.30;;;;;;5080153;28;20678;-82
2022/04/20 09:10:01;;;;;;;4.17;3.47;;;14.40;35.40;;;;;;5085177;28;20197;-82
2022/04/20 09:12:28;;;;;;;3.93;3.43;;;14.50;33.70;;;;;;5093305;28;20229;-82
2022/04/20 09:14:56;;;;;;;3.40;3.10;;;14.50;34.10;;;;;;5096441;28;20187;-82
2022/04/20 09:17:24;;;;;;;3.60;3.30;;;14.70;33.90;;;;;;5101184;28;20195;-81
2022/04/20 09:19:51;;;;;;;4.57;3.73;;;14.80;33.80;;;;;;5086090;28;20209;-82
2022/04/20 09:22:30;;;;;;;4.20;3.80;;;15.00;35.10;;;;;;5095236;28;20314;-83
2022/04/20 09:25:14;;;;;;;6.10;3.40;;;15.10;34.70;;;;;;5091931;28;20240;-82
2022/04/20 09:27:42;;;;;;;3.73;3.43;;;14.90;35.60;;;;;;5095558;28;20242;-81
2022/04/20 09:30:16;;;;;;;6.40;3.90;;;15.10;35.60;;;;;;5099032;28;20191;-83
2022/04/20 09:32:44;;;;;;;5.43;3.63;;;14.90;35.80;;;;;;5101121;28;20213;-82
2022/04/20 09:35:14;;;;;;;4.60;3.93;;;14.80;35.50;;;;;;5097848;28;20532;-83
2022/04/20 09:37:42;;;;;;;5.30;3.60;;;15.00;36.70;;;;;;5070490;28;20324;-82
2022/04/20 09:40:13;;;;;;;4.43;4.03;;;15.10;35.00;;;;;;5092126;28;20191;-83
2022/04/20 09:43:02;;;;;;;3.70;3.40;;;14.90;34.70;;;;;;5079560;28;20219;-84
2022/04/20 09:45:29;;;;;;;5.63;3.70;;;15.10;34.70;;;;;;5088482;28;20187;-83
2022/04/20 09:50:40;;;;;;;3.77;3.40;;;15.50;34.30;;;;;;5085116;28;20294;-84
2022/04/20 09:53:08;;;;;;;4.37;3.83;;;15.70;33.60;;;;;;5089325;28;20180;-83
2022/04/20 09:55:34;;;;;;;3.90;3.37;;;15.50;33.90;;;;;;5092366;28;20243;-83
2022/04/20 09:58:10;;;;;;;4.73;3.27;;;15.50;34.20;;;;;;5074789;28;20205;-82
2022/04/20 10:00:45;;;;;;;4.30;3.33;;;15.80;33.10;;;;;;5089308;28;20194;-83
2022/04/20 10:03:10;;;;;;;12.87;5.03;;;16.10;33.50;;;;;;5088896;28;20183;-83
2022/04/20 10:05:37;;;;;;;3.97;3.57;;;16.30;32.50;;;;;;5094942;28;20198;-84
2022/04/20 10:08:05;;;;;;;3.97;3.67;;;16.10;32.60;;;;;;5084380;28;20191;-82
2022/04/20 10:10:32;;;;;;;3.70;3.40;;;16.00;33.30;;;;;;5089539;28;20175;-83
2022/04/20 10:12:59;;;;;;;3.93;3.57;;;16.20;33.20;;;;;;5074885;28;20185;-83
2022/04/20 10:18:19;;;;;;;3.70;3.40;;;16.60;32.10;;;;;;5090700;28;20212;-84
2022/04/20 10:20:48;;;;;;;3.93;3.13;;;16.40;32.30;;;;;;5088885;28;20367;-83
2022/04/20 10:23:15;;;;;;;6.40;3.63;;;16.80;32.20;;;;;;5076971;28;20197;-85
2022/04/20 10:25:41;;;;;;;3.70;3.30;;;17.20;31.90;;;;;;5093987;28;20214;-83
2022/04/20 10:28:11;;;;;;;4.37;3.67;;;17.10;30.10;;;;;;5092452;28;20203;-84
2022/04/20 10:30:36;;;;;;;3.77;3.33;;;17.30;30.40;;;;;;5097656;28;20182;-83
2022/04/20 10:33:06;;;;;;;3.30;2.93;;;17.40;29.90;;;;;;5090035;28;21023;-83
2022/04/20 10:35:52;;;;;;;3.50;3.03;;;17.50;30.40;;;;;;5075262;28;20211;-82
2022/04/20 10:38:19;;;;;;;4.23;3.20;;;17.40;29.70;;;;;;5097030;28;20560;-83
2022/04/20 10:41:06;;;;;;;3.43;3.13;;;17.60;29.20;;;;;;5096290;28;20191;-82
2022/04/20 10:43:34;;;;;;;4.83;3.13;;;17.30;29.40;;;;;;5097522;28;20777;-83
2022/04/20 10:46:08;;;;;;;4.10;3.40;;;17.30;29.40;;;;;;5099651;28;20218;-82
2022/04/20 10:49:07;;;;;;;3.47;3.17;;;17.50;29.10;;;;;;5104331;28;20190;-83
2022/04/20 10:51:42;;;;;;;3.73;3.43;;;17.40;29.20;;;;;;5070754;28;20214;-82
2022/04/20 10:54:17;;;;;;;3.70;3.40;;;17.50;28.70;;;;;;5097091;28;20183;-83
2022/04/20 10:57:12;;;;;;;4.73;3.53;;;17.90;28.90;;;;;;5096141;28;20637;-85
2022/04/20 10:59:40;;;;;;;4.63;3.90;;;18.00;28.90;;;;;;5097089;28;20184;-87
2022/04/20 11:02:08;;;;;;;3.90;3.60;;;18.00;28.00;;;;;;5108316;28;20215;-83
2022/04/20 11:05:11;;;;;;;4.87;3.20;;;17.90;28.10;;;;;;5101669;28;20199;-82
2022/04/20 11:08:01;;;;;;;4.30;3.90;;;18.00;27.90;;;;;;5072043;28;20216;-82
2022/04/20 11:10:28;;;;;;;5.03;3.57;;;18.10;28.50;;;;;;5097461;28;20190;-82
2022/04/20 11:19:10;;;;;;;4.03;3.53;;;18.40;28.20;;;;;;5096178;28;20536;-83
2022/04/20 11:21:37;;;;;;;3.83;3.30;;;18.80;27.20;;;;;;5076555;28;20297;-83
2022/04/20 11:24:06;;;;;;;4.33;3.73;;;18.50;27.60;;;;;;5097437;28;20192;-84
2022/04/20 11:26:41;;;;;;;3.80;3.50;;;18.60;27.70;;;;;;5090154;28;20234;-83
2022/04/20 11:29:10;;;;;;;4.87;3.70;;;19.30;27.00;;;;;;5095938;28;20186;-82
2022/04/20 11:31:38;;;;;;;4.23;3.83;;;19.20;26.50;;;;;;5094354;28;20215;-83
2022/04/20 11:34:05;;;;;;;8.20;3.60;;;19.40;27.00;;;;;;5098866;28;20298;-83
2022/04/20 11:36:30;;;;;;;4.50;3.70;;;19.70;27.00;;;;;;5099317;28;20210;-82
2022/04/20 11:38:57;;;;;;;4.17;3.50;;;19.50;26.30;;;;;;5081867;28;20334;-84
2022/04/20 11:41:23;;;;;;;3.83;3.53;;;19.20;26.60;;;;;;5100722;28;20210;-84
2022/04/20 11:43:49;;;;;;;4.37;4.00;;;19.40;25.80;;;;;;5101623;28;20194;-83
2022/04/20 11:46:16;;;;;;;5.90;4.57;;;19.50;25.80;;;;;;5082603;28;20594;-82
2022/04/20 11:48:50;;;;;;;4.40;4.00;;;19.60;26.10;;;;;;5099232;28;20224;-82
2022/04/20 11:51:21;;;;;;;4.00;3.70;;;19.60;26.00;;;;;;5098276;28;20204;-82
2022/04/20 11:53:48;;;;;;;4.13;3.83;;;19.00;26.90;;;;;;5099376;28;20186;-83
2022/04/20 11:56:15;;;;;;;3.90;3.57;;;19.20;26.90;;;;;;5099793;28;20540;-82
2022/04/20 11:58:46;;;;;;;4.30;4.00;;;19.80;25.90;;;;;;5097651;28;20187;-83
2022/04/20 12:01:12;;;;;;;4.07;3.77;;;20.10;26.30;;;;;;5095838;28;20211;-83
2022/04/20 12:03:41;;;;;;;7.13;4.27;;;19.90;25.90;;;;;;5099865;28;20556;-85
2022/04/20 12:06:08;;;;;;;7.37;3.80;;;19.80;25.70;;;;;;5080020;28;20218;-83
2022/04/20 12:08:36;;;;;;;4.60;4.23;;;20.10;26.40;;;;;;5090229;28;20183;-83
2022/04/20 12:11:07;;;;;;;6.80;4.25;;;20.00;25.80;;;;;;5097950;28;20202;-83
2022/04/20 12:13:33;;;;;;;5.60;3.80;;;20.50;25.50;;;;;;5099833;28;20285;-83
2022/04/20 12:16:09;;;;;;;4.55;4.15;;;20.70;25.70;;;;;;5099980;28;20259;-83
2022/04/20 12:18:44;;;;;;;4.80;4.40;;;20.40;26.10;;;;;;5096212;28;20214;-82
2022/04/20 12:21:44;;;;;;;7.70;4.50;;;20.30;25.40;;;;;;5096596;28;20250;-83
2022/04/20 12:24:26;;;;;;;6.17;4.00;;;19.70;25.50;;;;;;5100077;28;20586;-83
2022/04/20 12:26:54;;;;;;;4.07;3.78;;;19.70;26.50;;;;;;5100144;28;20203;-83
2022/04/20 12:29:22;;;;;;;4.20;3.90;;;20.40;25.50;;;;;;5099411;28;20176;-84
2022/04/20 12:31:50;;;;;;;4.47;3.85;;;20.40;25.10;;;;;;5080457;28;20214;-85
2022/04/20 12:34:17;;;;;;;4.65;4.25;;;20.60;24.90;;;;;;5099278;28;20183;-83
2022/04/20 12:37:03;;;;;;;5.65;4.00;;;21.20;24.60;;;;;;5100748;28;20288;-84
2022/04/20 12:39:40;;;;;;;5.63;4.30;;;21.60;24.30;;;;;;5078838;28;20214;-85
2022/04/20 12:42:13;;;;;;;4.40;4.10;;;21.60;24.40;;;;;;5097914;28;20210;-83
2022/04/20 12:44:53;;;;;;;4.30;4.00;;;21.80;23.70;;;;;;5082251;28;20191;-85
2022/04/20 12:47:22;;;;;;;4.60;4.20;;;21.10;24.30;;;;;;5101134;28;20210;-85
2022/04/20 12:49:52;;;;;;;5.75;4.22;;;21.30;24.40;;;;;;5097338;28;20193;-83
2022/04/20 12:52:19;;;;;;;5.40;4.80;;;20.90;24.60;;;;;;5099324;28;20721;-84
2022/04/20 12:54:57;;;;;;;5.13;4.57;;;21.40;24.20;;;;;;5095749;28;20188;-83
2022/04/20 13:03:02;;;;;;;4.45;4.03;;;21.80;24.10;;;;;;5095002;28;20212;-83
2022/04/20 13:05:29;;;;;;;5.70;4.40;;;22.50;23.20;;;;;;5099019;28;20202;-84
2022/04/20 13:07:55;;;;;;;5.03;4.30;;;22.30;23.10;;;;;;5096482;28;20185;-83
2022/04/20 13:10:24;;;;;;;4.45;4.10;;;22.30;23.30;;;;;;5094659;28;20206;-85
2022/04/20 13:12:54;;;;;;;6.22;4.45;;;22.50;23.10;;;;;;5080063;28;20242;-84
2022/04/20 13:15:22;;;;;;;5.18;3.92;;;22.30;24.00;;;;;;5077327;28;20193;-85
2022/04/20 13:17:48;;;;;;;4.68;4.03;;;22.90;22.60;;;;;;5098128;28;20224;-83
2022/04/20 13:20:16;;;;;;;5.97;4.30;;;22.50;22.40;;;;;;5104199;28;20220;-84
2022/04/20 13:22:42;;;;;;;4.53;4.13;;;22.30;22.20;;;;;;5082603;28;20215;-85
2022/04/20 13:27:56;;;;;;;5.13;4.40;;;22.10;22.80;;;;;;5097221;28;20206;-85
2022/04/20 13:30:27;;;;;;;5.53;4.30;;;22.20;22.40;;;;;;5099743;28;20191;-85
2022/04/20 13:32:57;;;;;;;5.50;4.72;;;22.00;22.40;;;;;;5081869;28;20198;-84